Time;durP1;ratioP1;P1;durP2;ratioP2;P2;SDS_P1;SDS_P2;PMS_P1;PMS_P2;Temp;Humidity;BMP_temperature;BMP_pressure;BME280_temperature;BME280_humidity;BME280_pressure;Samples;Min_cycle;Max_cycle;Signal;HPM_P1;HPM_P2
2023/03/10 00:01:21;;;;;;;4.07;1.00;;;10.50;99.90;;;;;;5003469;28;20207;-71
2023/03/10 00:03:49;;;;;;;3.60;1.10;;;10.50;99.90;;;;;;5005947;28;20232;-71
2023/03/10 00:06:19;;;;;;;8.43;1.60;;;10.40;99.90;;;;;;5020414;28;20220;-71
2023/03/10 00:08:46;;;;;;;5.80;1.20;;;10.40;99.90;;;;;;5021626;28;20195;-70
2023/03/10 00:11:13;;;;;;;2.03;1.07;;;10.40;99.90;;;;;;5004427;28;20201;-70
2023/03/10 00:13:40;;;;;;;5.27;1.13;;;10.50;99.90;;;;;;5021652;28;20192;-70
2023/03/10 00:16:10;;;;;;;6.40;1.30;;;10.50;99.90;;;;;;5003888;28;20319;-70
2023/03/10 00:18:36;;;;;;;5.67;1.50;;;10.50;99.90;;;;;;5018836;28;20210;-71
2023/03/10 00:21:03;;;;;;;8.73;1.10;;;10.50;99.90;;;;;;5002736;28;20200;-70
2023/03/10 00:23:30;;;;;;;6.30;1.40;;;10.50;99.90;;;;;;5018659;28;20192;-70
2023/03/10 00:25:59;;;;;;;6.10;1.30;;;10.50;99.90;;;;;;5018250;28;20208;-71
2023/03/10 00:28:27;;;;;;;6.23;1.43;;;10.40;99.90;;;;;;4999783;28;20191;-70
2023/03/10 00:31:06;;;;;;;7.70;1.27;;;10.40;99.90;;;;;;5020612;28;20216;-70
2023/03/10 00:33:34;;;;;;;5.17;1.20;;;10.30;99.90;;;;;;5003027;28;20195;-71
2023/03/10 00:36:12;;;;;;;7.87;1.40;;;10.30;99.90;;;;;;5023039;28;20192;-70
2023/03/10 00:38:41;;;;;;;11.60;1.30;;;10.30;99.90;;;;;;5018660;28;20199;-70
2023/03/10 00:41:12;;;;;;;4.30;1.20;;;10.40;99.90;;;;;;5020951;28;20192;-70
2023/03/10 00:43:38;;;;;;;7.80;1.10;;;10.40;99.90;;;;;;5021847;28;20378;-71
2023/03/10 00:46:05;;;;;;;5.03;0.90;;;10.30;99.90;;;;;;5020901;28;20206;-70
2023/03/10 00:48:31;;;;;;;5.40;1.27;;;10.40;99.90;;;;;;5003143;28;20671;-71
2023/03/10 00:50:58;;;;;;;7.67;1.47;;;10.40;99.90;;;;;;5002341;28;20212;-71
2023/03/10 00:53:26;;;;;;;7.57;0.90;;;10.40;99.90;;;;;;5021099;28;20196;-70
2023/03/10 00:56:15;;;;;;;9.07;1.40;;;10.40;99.90;;;;;;5002946;28;20195;-70
2023/03/10 00:58:43;;;;;;;5.23;1.30;;;10.40;99.90;;;;;;5019613;28;20227;-70
2023/03/10 01:01:26;;;;;;;5.03;1.30;;;10.30;99.90;;;;;;5003811;28;20207;-70
2023/03/10 01:03:56;;;;;;;4.97;1.30;;;10.30;99.90;;;;;;5019341;28;20339;-71
2023/03/10 01:06:24;;;;;;;6.63;1.70;;;10.40;99.90;;;;;;5020277;28;20203;-70
2023/03/10 01:08:51;;;;;;;3.57;1.07;;;10.40;99.90;;;;;;5004497;28;21296;-70
2023/03/10 01:11:26;;;;;;;4.77;1.17;;;10.40;99.90;;;;;;5019116;28;20176;-70
2023/03/10 01:13:57;;;;;;;5.17;1.27;;;10.40;99.90;;;;;;5018144;28;20216;-70
2023/03/10 01:16:24;;;;;;;3.50;1.03;;;10.40;99.90;;;;;;5001687;28;20577;-70
2023/03/10 01:18:50;;;;;;;6.17;1.20;;;10.40;99.90;;;;;;4986775;28;20188;-70
2023/03/10 01:21:21;;;;;;;4.80;1.13;;;10.40;99.90;;;;;;5017846;28;20307;-70
2023/03/10 01:23:48;;;;;;;8.27;1.37;;;10.50;99.90;;;;;;5001560;28;20291;-71
2023/03/10 01:26:16;;;;;;;11.00;1.50;;;10.50;99.90;;;;;;5000267;28;20202;-70
2023/03/10 01:28:44;;;;;;;4.97;1.20;;;10.50;99.90;;;;;;5000292;28;20505;-71
2023/03/10 01:31:10;;;;;;;7.00;1.40;;;10.50;99.90;;;;;;5019132;28;20299;-71
2023/03/10 01:33:39;;;;;;;6.33;1.63;;;10.40;99.90;;;;;;4998481;28;20306;-70
2023/03/10 01:36:16;;;;;;;8.03;1.50;;;10.30;99.90;;;;;;5018210;28;20940;-71
2023/03/10 01:38:44;;;;;;;10.20;1.60;;;10.30;99.90;;;;;;5016960;28;20918;-70
2023/03/10 01:41:12;;;;;;;6.33;1.50;;;10.30;99.90;;;;;;5000515;28;20619;-71
2023/03/10 01:43:42;;;;;;;10.60;1.77;;;10.40;99.90;;;;;;5018319;28;20257;-70
2023/03/10 01:46:41;;;;;;;4.03;1.60;;;10.40;99.90;;;;;;5017576;28;20894;-70
2023/03/10 01:49:44;;;;;;;6.97;1.60;;;10.40;99.90;;;;;;4998111;28;20223;-70
2023/03/10 01:52:19;;;;;;;4.50;1.33;;;10.40;99.90;;;;;;5017960;28;20727;-71
2023/03/10 01:55:29;;;;;;;7.77;1.80;;;10.30;99.90;;;;;;5000179;28;20209;-70
2023/03/10 01:57:57;;;;;;;7.87;1.87;;;10.30;99.90;;;;;;4972837;28;20865;-70
2023/03/10 02:00:26;;;;;;;3.93;1.30;;;10.30;99.90;;;;;;4999911;28;20242;-70
2023/03/10 02:03:22;;;;;;;4.73;1.20;;;10.20;99.90;;;;;;5001079;28;20197;-71
2023/03/10 02:05:55;;;;;;;6.80;1.27;;;10.30;99.90;;;;;;5019221;28;20731;-70
2023/03/10 02:08:24;;;;;;;5.43;1.30;;;10.30;99.90;;;;;;5017322;28;20203;-71
2023/03/10 02:10:51;;;;;;;12.57;1.63;;;10.30;99.90;;;;;;4984019;28;20225;-71
2023/03/10 02:13:21;;;;;;;5.20;1.30;;;10.30;99.90;;;;;;5017068;28;20188;-70
2023/03/10 02:15:48;;;;;;;5.63;1.20;;;10.30;99.90;;;;;;4982750;28;20620;-70
2023/03/10 02:18:17;;;;;;;5.07;1.57;;;10.20;99.90;;;;;;4999334;28;20203;-70
2023/03/10 02:20:59;;;;;;;6.43;1.87;;;10.20;99.90;;;;;;5016733;28;20196;-70
2023/03/10 02:23:56;;;;;;;7.47;1.60;;;10.20;99.90;;;;;;5001145;28;20286;-71
2023/03/10 02:26:58;;;;;;;6.13;1.33;;;10.10;99.90;;;;;;5017595;28;20192;-70
2023/03/10 02:30:29;;;;;;;7.17;1.33;;;10.00;99.90;;;;;;5015427;28;20223;-70
2023/03/10 02:33:03;;;;;;;8.77;1.53;;;9.90;99.90;;;;;;4998380;28;20192;-70
2023/03/10 02:35:29;;;;;;;8.67;1.67;;;9.90;99.90;;;;;;5016991;28;20507;-70
2023/03/10 02:37:56;;;;;;;7.13;1.23;;;10.00;99.90;;;;;;5018444;28;20207;-72
2023/03/10 02:40:54;;;;;;;7.97;1.53;;;10.10;99.90;;;;;;4999853;28;20196;-70
2023/03/10 02:43:36;;;;;;;8.43;1.37;;;10.10;99.90;;;;;;5017548;28;20610;-71
2023/03/10 02:46:06;;;;;;;8.00;1.47;;;10.20;99.90;;;;;;5019258;28;20200;-71
2023/03/10 02:48:36;;;;;;;9.40;1.53;;;10.20;99.90;;;;;;5017744;28;20318;-69
2023/03/10 02:51:18;;;;;;;6.77;1.70;;;10.10;99.90;;;;;;5017222;28;20220;-69
2023/03/10 02:53:44;;;;;;;8.73;1.53;;;10.20;99.90;;;;;;5018839;28;20223;-69
2023/03/10 02:56:11;;;;;;;6.07;1.17;;;10.20;99.90;;;;;;5002780;28;20279;-69
2023/03/10 02:58:37;;;;;;;10.73;1.40;;;10.20;99.90;;;;;;5003442;28;20192;-69
2023/03/10 03:01:05;;;;;;;7.33;1.23;;;10.10;99.90;;;;;;5016416;28;20274;-70
2023/03/10 03:03:32;;;;;;;6.30;1.30;;;10.20;99.90;;;;;;5015766;28;20832;-69
2023/03/10 03:05:58;;;;;;;4.00;1.20;;;10.10;99.90;;;;;;4997847;28;20197;-69
2023/03/10 03:08:25;;;;;;;8.43;1.63;;;10.10;99.90;;;;;;4999344;28;20673;-69
2023/03/10 03:10:51;;;;;;;4.77;1.57;;;10.00;99.90;;;;;;4999902;28;20555;-69
2023/03/10 03:13:18;;;;;;;8.47;1.50;;;9.90;99.90;;;;;;5001925;28;20223;-69
2023/03/10 03:15:45;;;;;;;6.87;1.57;;;9.80;99.90;;;;;;5022683;28;20223;-69
2023/03/10 03:18:12;;;;;;;2.87;1.30;;;9.70;99.90;;;;;;5019961;28;20286;-69
2023/03/10 03:20:39;;;;;;;7.13;1.50;;;9.70;99.90;;;;;;4989814;28;20212;-69
2023/03/10 03:23:07;;;;;;;10.57;1.60;;;9.70;99.90;;;;;;5021856;28;20243;-69
2023/03/10 03:25:37;;;;;;;10.47;1.93;;;9.60;99.90;;;;;;5020576;28;20319;-69
2023/03/10 03:28:07;;;;;;;10.73;1.70;;;9.70;99.90;;;;;;5001977;28;20742;-69
2023/03/10 03:30:34;;;;;;;9.23;1.47;;;9.70;99.90;;;;;;4988510;28;20231;-69
2023/03/10 03:33:02;;;;;;;6.07;1.07;;;9.80;99.90;;;;;;5024675;28;20765;-69
2023/03/10 03:35:33;;;;;;;9.87;1.50;;;9.80;99.90;;;;;;5005307;28;20204;-69
2023/03/10 03:38:01;;;;;;;4.17;1.30;;;9.90;99.90;;;;;;5022828;28;20191;-69
2023/03/10 03:40:32;;;;;;;7.37;1.23;;;9.90;99.90;;;;;;5004173;28;20231;-69
2023/03/10 03:42:59;;;;;;;4.50;0.90;;;10.00;99.90;;;;;;5006904;28;20199;-69
2023/03/10 03:45:28;;;;;;;13.60;1.67;;;10.10;99.90;;;;;;5020009;28;20191;-69
2023/03/10 03:47:55;;;;;;;10.17;1.87;;;10.10;99.90;;;;;;5006220;28;20242;-69
2023/03/10 03:50:23;;;;;;;6.23;1.63;;;10.20;99.90;;;;;;5004554;28;20216;-69
2023/03/10 03:52:49;;;;;;;6.13;1.33;;;10.30;99.90;;;;;;5021186;28;20196;-69
2023/03/10 03:55:18;;;;;;;9.97;1.20;;;10.40;99.90;;;;;;5004596;28;20208;-69
2023/03/10 03:57:45;;;;;;;13.03;1.60;;;10.50;99.90;;;;;;5005674;28;20257;-69
2023/03/10 04:00:21;;;;;;;3.50;1.20;;;10.50;99.90;;;;;;5022899;28;20295;-69
2023/03/10 04:02:47;;;;;;;3.00;0.93;;;10.50;99.90;;;;;;4989119;28;20191;-69
2023/03/10 04:05:15;;;;;;;6.90;1.30;;;10.50;99.90;;;;;;5020769;28;20200;-69
2023/03/10 04:07:42;;;;;;;5.70;1.23;;;10.50;99.90;;;;;;5020427;28;20189;-70
2023/03/10 04:10:13;;;;;;;6.63;1.20;;;10.50;99.90;;;;;;5021464;28;20604;-69
2023/03/10 04:12:40;;;;;;;9.40;1.30;;;10.50;99.90;;;;;;5023548;28;20895;-69
2023/03/10 04:15:07;;;;;;;8.67;1.67;;;10.50;99.90;;;;;;5005277;28;20181;-69
2023/03/10 04:17:34;;;;;;;5.90;1.40;;;10.60;99.90;;;;;;5002590;28;20297;-69
2023/03/10 04:20:01;;;;;;;11.80;1.37;;;10.60;99.90;;;;;;5021740;28;20227;-69
2023/03/10 04:22:28;;;;;;;6.43;1.30;;;10.60;99.90;;;;;;4986296;28;20643;-69
2023/03/10 04:24:54;;;;;;;6.37;1.30;;;10.70;99.90;;;;;;4988898;28;20938;-69
2023/03/10 04:27:20;;;;;;;5.23;1.50;;;10.80;99.90;;;;;;5018054;28;20192;-69
2023/03/10 04:29:46;;;;;;;4.30;1.33;;;10.80;99.90;;;;;;5023137;28;20239;-69
2023/03/10 04:32:13;;;;;;;5.77;1.60;;;10.80;99.90;;;;;;4988194;28;20283;-69
2023/03/10 04:34:39;;;;;;;6.17;1.50;;;11.00;99.90;;;;;;5023721;28;20192;-69
2023/03/10 04:37:06;;;;;;;4.97;1.13;;;11.00;99.90;;;;;;5021963;28;20226;-69
2023/03/10 04:39:32;;;;;;;4.93;1.33;;;11.00;99.90;;;;;;5021296;28;20247;-69
2023/03/10 04:41:59;;;;;;;7.63;1.60;;;11.00;99.90;;;;;;5005645;28;20219;-69
2023/03/10 04:44:25;;;;;;;7.50;1.43;;;11.10;99.90;;;;;;5022050;28;20191;-70
2023/03/10 04:46:51;;;;;;;7.83;1.67;;;11.10;99.90;;;;;;5005401;28;20232;-69
2023/03/10 04:49:17;;;;;;;10.07;1.73;;;11.20;99.90;;;;;;5021822;28;20694;-69
2023/03/10 04:51:43;;;;;;;6.93;1.63;;;11.30;99.90;;;;;;5021863;28;20188;-69
2023/03/10 04:54:12;;;;;;;9.43;1.47;;;11.40;99.90;;;;;;5022359;28;20598;-69
2023/03/10 04:56:38;;;;;;;6.00;1.87;;;11.40;99.90;;;;;;5023037;28;20196;-69
2023/03/10 04:59:05;;;;;;;7.50;1.87;;;11.40;99.90;;;;;;5021266;28;20270;-69
2023/03/10 05:01:32;;;;;;;7.57;1.40;;;11.40;99.90;;;;;;5003296;28;20208;-69
2023/03/10 05:04:03;;;;;;;9.53;1.90;;;11.40;99.90;;;;;;5021969;28;20227;-69
2023/03/10 05:06:31;;;;;;;5.00;1.27;;;11.50;99.90;;;;;;5019233;28;20204;-70
2023/03/10 05:08:59;;;;;;;7.90;1.70;;;11.50;99.90;;;;;;5021347;28;20195;-70
2023/03/10 05:11:26;;;;;;;7.87;1.30;;;11.50;99.90;;;;;;5002875;28;20532;-70
2023/03/10 05:13:52;;;;;;;6.37;1.40;;;11.50;99.90;;;;;;5004422;28;20180;-69
2023/03/10 05:16:20;;;;;;;6.20;1.40;;;11.60;99.90;;;;;;5022846;28;20231;-69
2023/03/10 05:18:47;;;;;;;8.67;1.90;;;11.70;99.90;;;;;;5003701;28;20184;-69
2023/03/10 05:21:14;;;;;;;3.57;1.30;;;11.90;99.90;;;;;;5004208;28;20195;-70
2023/03/10 05:23:40;;;;;;;6.23;1.50;;;11.90;99.90;;;;;;5003349;28;20223;-69
2023/03/10 05:26:10;;;;;;;9.93;1.77;;;11.90;99.90;;;;;;4987169;28;20260;-69
2023/03/10 05:28:37;;;;;;;5.67;1.50;;;12.00;99.90;;;;;;5000237;28;20245;-69
2023/03/10 05:31:14;;;;;;;3.20;1.00;;;12.00;99.90;;;;;;5002388;28;20212;-69
2023/03/10 05:33:41;;;;;;;7.87;1.17;;;12.20;99.90;;;;;;5021003;28;20719;-70
2023/03/10 05:36:11;;;;;;;10.97;1.43;;;12.20;99.90;;;;;;5021563;28;20567;-69
2023/03/10 05:38:38;;;;;;;7.30;1.37;;;12.30;99.90;;;;;;4985660;28;20228;-69
2023/03/10 05:41:09;;;;;;;4.50;1.33;;;12.40;99.90;;;;;;5021213;28;20704;-69
2023/03/10 05:43:37;;;;;;;7.87;1.53;;;12.40;99.90;;;;;;5002697;28;20199;-69
2023/03/10 05:46:05;;;;;;;5.27;1.33;;;12.50;99.90;;;;;;5003614;28;20357;-70
2023/03/10 05:48:31;;;;;;;8.93;1.30;;;12.60;99.90;;;;;;5005678;28;20238;-69
2023/03/10 05:51:08;;;;;;;8.93;1.30;;;12.80;99.90;;;;;;5020877;28;20774;-69
2023/03/10 05:53:36;;;;;;;7.37;1.47;;;12.80;99.90;;;;;;5019482;28;20269;-69
2023/03/10 05:56:10;;;;;;;10.77;1.37;;;12.80;99.90;;;;;;4982553;28;20196;-69
2023/03/10 05:58:37;;;;;;;8.03;1.60;;;12.80;99.90;;;;;;5002569;28;20191;-70
2023/03/10 06:01:05;;;;;;;8.67;1.40;;;13.00;99.90;;;;;;5002279;28;20211;-69
2023/03/10 06:03:33;;;;;;;4.97;1.43;;;13.10;99.90;;;;;;5002520;28;20250;-70
2023/03/10 06:06:00;;;;;;;7.77;1.40;;;13.10;99.90;;;;;;5019699;28;20907;-69
2023/03/10 06:08:29;;;;;;;9.27;1.50;;;13.40;99.90;;;;;;4997384;28;20191;-70
2023/03/10 06:10:57;;;;;;;7.27;1.90;;;13.60;99.90;;;;;;5001741;28;20258;-69
2023/03/10 06:13:25;;;;;;;4.80;1.50;;;13.50;99.90;;;;;;5017199;28;20688;-70
2023/03/10 06:16:01;;;;;;;8.00;1.93;;;13.50;99.90;;;;;;5020323;28;20188;-69
2023/03/10 06:18:29;;;;;;;5.40;1.40;;;13.50;99.90;;;;;;5017956;28;20219;-69
2023/03/10 06:20:56;;;;;;;5.37;1.40;;;13.50;99.90;;;;;;5020890;28;20192;-70
2023/03/10 06:23:24;;;;;;;9.00;1.47;;;13.50;99.90;;;;;;4985476;28;20196;-69
2023/03/10 06:26:07;;;;;;;9.30;1.43;;;13.80;99.90;;;;;;5002081;28;20203;-69
2023/03/10 06:28:37;;;;;;;3.83;1.53;;;13.80;99.90;;;;;;5018824;28;20219;-69
2023/03/10 06:31:15;;;;;;;5.10;1.50;;;13.80;99.90;;;;;;5017450;28;20220;-70
2023/03/10 06:33:41;;;;;;;9.30;1.60;;;13.80;99.90;;;;;;5019747;28;20797;-69
2023/03/10 06:36:11;;;;;;;7.20;1.37;;;13.90;99.90;;;;;;5001917;28;20276;-69
2023/03/10 06:38:38;;;;;;;7.77;1.50;;;14.00;99.90;;;;;;5002458;28;20246;-69
2023/03/10 06:41:06;;;;;;;6.67;1.50;;;14.20;99.90;;;;;;5018569;28;20207;-69
2023/03/10 06:43:33;;;;;;;6.13;0.97;;;14.10;99.90;;;;;;5020626;28;20196;-69
2023/03/10 06:46:04;;;;;;;10.57;1.80;;;14.20;99.90;;;;;;5004350;28;20192;-70
2023/03/10 06:48:30;;;;;;;7.87;1.50;;;14.20;99.90;;;;;;5016834;28;20184;-69
2023/03/10 06:50:56;;;;;;;7.10;1.40;;;14.30;99.90;;;;;;5001244;28;20721;-69
2023/03/10 06:53:23;;;;;;;8.97;1.80;;;14.30;99.90;;;;;;5006331;28;20250;-69
2023/03/10 06:56:10;;;;;;;5.57;1.57;;;14.20;99.90;;;;;;5006936;28;20184;-69
2023/03/10 06:58:37;;;;;;;4.73;1.30;;;14.30;99.90;;;;;;5020096;28;20891;-70
2023/03/10 07:01:06;;;;;;;6.83;1.30;;;14.40;99.90;;;;;;5006755;28;21173;-69
2023/03/10 07:03:33;;;;;;;9.47;1.40;;;14.50;99.90;;;;;;5005854;28;21028;-69
2023/03/10 07:06:00;;;;;;;7.40;1.87;;;14.50;99.90;;;;;;5022687;28;20558;-69
2023/03/10 07:08:29;;;;;;;9.57;1.40;;;14.10;99.90;;;;;;5003716;28;20198;-69
2023/03/10 07:10:56;;;;;;;6.17;1.33;;;13.80;99.90;;;;;;5020978;28;20393;-69
2023/03/10 07:13:23;;;;;;;7.53;1.57;;;13.60;99.90;;;;;;5023982;28;20309;-69
2023/03/10 07:15:49;;;;;;;7.93;1.50;;;13.50;99.90;;;;;;5004015;28;20188;-69
2023/03/10 07:18:16;;;;;;;10.23;1.43;;;13.40;99.90;;;;;;5005786;28;20196;-69
2023/03/10 07:20:44;;;;;;;6.77;1.87;;;13.40;99.90;;;;;;4990155;28;20192;-70
2023/03/10 07:23:11;;;;;;;7.83;1.80;;;13.40;99.90;;;;;;5025201;28;20200;-69
2023/03/10 07:25:39;;;;;;;9.00;1.23;;;13.50;99.90;;;;;;5023211;28;20383;-69
2023/03/10 07:28:06;;;;;;;8.60;1.70;;;13.40;99.90;;;;;;5024094;28;20196;-69
2023/03/10 07:30:33;;;;;;;5.80;1.53;;;13.50;99.90;;;;;;5022823;28;20307;-69
2023/03/10 07:33:00;;;;;;;11.27;1.33;;;13.50;99.90;;;;;;5004418;28;20184;-69
2023/03/10 07:35:26;;;;;;;11.20;1.97;;;13.40;99.90;;;;;;5002610;28;20275;-69
2023/03/10 07:37:52;;;;;;;5.67;1.17;;;13.50;99.90;;;;;;5021945;28;20825;-69
2023/03/10 07:40:23;;;;;;;6.03;1.63;;;13.60;99.90;;;;;;5022080;28;20199;-69
2023/03/10 07:42:53;;;;;;;8.53;1.90;;;13.70;99.90;;;;;;5004115;28;20195;-69
2023/03/10 07:45:21;;;;;;;6.83;1.70;;;13.70;99.90;;;;;;5006507;28;20200;-70
2023/03/10 07:47:47;;;;;;;10.27;1.87;;;13.70;99.90;;;;;;5003382;28;20200;-70
2023/03/10 07:50:13;;;;;;;5.33;1.53;;;13.70;99.90;;;;;;5005713;28;20589;-69
2023/03/10 07:52:39;;;;;;;7.37;1.83;;;13.70;99.90;;;;;;5004348;28;20186;-69
2023/03/10 07:55:06;;;;;;;8.33;1.50;;;13.60;99.90;;;;;;5017900;28;20203;-69
2023/03/10 07:57:32;;;;;;;4.30;1.40;;;13.60;99.90;;;;;;5003414;28;20192;-69
2023/03/10 07:59:59;;;;;;;4.67;1.60;;;13.70;99.90;;;;;;5023112;28;20215;-69
2023/03/10 08:02:25;;;;;;;10.57;1.80;;;13.80;99.90;;;;;;5020910;28;20199;-69
2023/03/10 08:04:52;;;;;;;5.70;1.37;;;13.80;99.90;;;;;;5004533;28;20575;-69
2023/03/10 08:07:18;;;;;;;10.27;1.87;;;13.90;99.90;;;;;;5015477;28;21110;-69
2023/03/10 08:09:51;;;;;;;9.13;1.90;;;14.00;99.90;;;;;;5003136;28;20246;-69
2023/03/10 08:12:19;;;;;;;4.33;1.40;;;14.00;99.90;;;;;;5002958;28;20551;-69
2023/03/10 08:14:47;;;;;;;6.40;1.93;;;14.00;99.90;;;;;;5003820;28;20192;-69
2023/03/10 08:17:14;;;;;;;12.93;2.07;;;14.10;99.90;;;;;;5017908;28;20216;-69
2023/03/10 08:19:40;;;;;;;8.57;1.73;;;14.20;99.90;;;;;;5020908;28;20215;-69
2023/03/10 08:22:09;;;;;;;13.40;1.80;;;14.30;99.90;;;;;;5006392;28;20199;-69
2023/03/10 08:24:37;;;;;;;9.03;2.07;;;14.20;99.90;;;;;;5003265;28;20562;-69
2023/03/10 08:27:04;;;;;;;7.27;1.60;;;14.40;99.90;;;;;;5022247;28;20257;-69
2023/03/10 08:29:31;;;;;;;5.00;1.50;;;14.50;99.90;;;;;;5020159;28;20200;-69
2023/03/10 08:31:57;;;;;;;10.03;2.00;;;14.50;99.90;;;;;;4989646;28;20188;-69
2023/03/10 08:34:23;;;;;;;14.70;2.03;;;14.60;99.90;;;;;;5023264;28;20812;-69
2023/03/10 08:36:49;;;;;;;10.73;2.00;;;14.70;99.90;;;;;;5016014;28;20196;-69
2023/03/10 08:39:15;;;;;;;6.90;1.97;;;15.10;99.90;;;;;;5021109;28;20219;-69
2023/03/10 08:41:47;;;;;;;16.87;2.20;;;15.20;99.90;;;;;;5004971;28;22173;-69
2023/03/10 08:44:16;;;;;;;9.60;2.53;;;15.20;99.90;;;;;;5022261;28;20192;-69
2023/03/10 08:46:46;;;;;;;11.50;2.03;;;15.20;99.90;;;;;;4988779;28;20184;-69
2023/03/10 08:49:14;;;;;;;13.80;1.93;;;15.30;99.90;;;;;;4998573;28;20223;-69
2023/03/10 08:51:41;;;;;;;7.87;1.87;;;15.20;99.90;;;;;;5020177;28;20200;-69
2023/03/10 08:54:10;;;;;;;16.97;1.77;;;15.50;99.90;;;;;;5005334;28;20188;-69
2023/03/10 08:56:36;;;;;;;9.73;1.90;;;15.70;99.90;;;;;;5021938;28;20204;-69
2023/03/10 08:59:03;;;;;;;10.63;1.90;;;15.90;99.90;;;;;;5019655;28;20203;-70
2023/03/10 09:01:34;;;;;;;20.27;2.30;;;15.70;99.90;;;;;;5018889;28;20203;-69
2023/03/10 09:04:04;;;;;;;11.83;1.83;;;15.70;99.90;;;;;;5002218;28;20269;-69
2023/03/10 09:06:30;;;;;;;8.50;1.70;;;15.70;99.90;;;;;;5016493;28;20513;-69
2023/03/10 09:08:57;;;;;;;7.00;1.90;;;15.80;99.90;;;;;;5015093;28;20211;-69
2023/03/10 09:11:31;;;;;;;7.20;2.00;;;15.70;99.90;;;;;;5002638;28;20634;-70
2023/03/10 09:13:59;;;;;;;14.07;2.07;;;15.70;99.90;;;;;;5016542;28;20214;-69
2023/03/10 09:16:27;;;;;;;7.67;2.00;;;16.00;99.90;;;;;;5015999;28;20184;-71
2023/03/10 09:18:57;;;;;;;21.83;2.60;;;16.10;99.90;;;;;;5019062;28;20185;-70
2023/03/10 09:21:25;;;;;;;23.07;2.87;;;16.20;99.90;;;;;;5018502;28;20787;-71
2023/03/10 09:23:52;;;;;;;13.97;2.33;;;16.30;99.90;;;;;;5009458;28;21825;-71
2023/03/10 09:26:19;;;;;;;17.27;2.63;;;16.20;99.90;;;;;;5015859;28;20238;-72
2023/03/10 09:28:48;;;;;;;12.63;2.10;;;16.20;99.90;;;;;;4997143;28;20187;-71
2023/03/10 09:31:27;;;;;;;10.10;2.33;;;16.20;99.90;;;;;;5016739;28;20208;-71
2023/03/10 09:33:53;;;;;;;13.87;2.17;;;16.20;99.90;;;;;;4999381;28;20317;-71
2023/03/10 09:36:19;;;;;;;10.93;2.30;;;16.50;99.90;;;;;;5004591;28;20194;-71
2023/03/10 09:38:46;;;;;;;8.67;2.00;;;16.50;99.90;;;;;;5006324;28;20183;-71
2023/03/10 09:42:04;;;;;;;20.87;2.50;;;16.50;99.90;;;;;;5014743;28;20238;-71
2023/03/10 09:45:10;;;;;;;11.40;2.50;;;16.60;99.90;;;;;;4964141;28;20222;-70
2023/03/10 09:48:30;;;;;;;17.63;2.93;;;16.80;99.90;;;;;;4995165;28;20722;-71
2023/03/10 09:50:58;;;;;;;12.97;2.70;;;17.10;99.90;;;;;;5015278;28;20353;-71
2023/03/10 09:53:45;;;;;;;18.40;2.20;;;17.30;99.90;;;;;;5019435;28;20184;-71
2023/03/10 09:56:27;;;;;;;9.23;1.80;;;17.50;99.90;;;;;;5011900;28;20195;-71
2023/03/10 09:59:06;;;;;;;16.77;2.87;;;17.40;99.90;;;;;;4979235;28;20180;-71
2023/03/10 10:01:34;;;;;;;14.33;2.37;;;17.50;99.90;;;;;;5018268;28;20294;-71
2023/03/10 10:04:14;;;;;;;13.10;2.07;;;17.60;99.90;;;;;;5014254;28;20200;-71
2023/03/10 10:06:46;;;;;;;15.43;2.17;;;17.60;99.90;;;;;;4998166;28;20285;-71
2023/03/10 10:09:41;;;;;;;16.77;2.70;;;17.80;99.90;;;;;;4999100;28;20451;-71
2023/03/10 10:12:22;;;;;;;11.55;2.47;;;18.00;99.90;;;;;;5018716;28;20430;-71
2023/03/10 10:15:05;;;;;;;14.68;2.40;;;18.20;99.90;;;;;;5015102;28;20420;-71
2023/03/10 10:18:22;;;;;;;11.25;2.28;;;18.10;99.90;;;;;;5015995;28;20527;-71
2023/03/10 10:21:08;;;;;;;12.10;2.40;;;18.10;99.90;;;;;;4968122;28;21134;-70
2023/03/10 10:23:50;;;;;;;10.23;2.17;;;18.30;99.90;;;;;;5015485;28;20620;-70
2023/03/10 10:26:25;;;;;;;15.50;2.40;;;18.20;99.90;;;;;;4999451;28;21120;-70
2023/03/10 10:29:12;;;;;;;14.02;2.33;;;18.40;99.90;;;;;;5021987;28;21019;-71
2023/03/10 10:31:38;;;;;;;16.40;2.45;;;18.50;99.90;;;;;;5023635;28;20418;-71
2023/03/10 10:34:22;;;;;;;9.50;2.35;;;18.60;99.90;;;;;;5004474;28;20510;-71
2023/03/10 10:36:54;;;;;;;19.25;2.80;;;18.70;99.90;;;;;;5021877;28;20506;-70
2023/03/10 10:39:39;;;;;;;13.57;2.65;;;18.80;99.90;;;;;;5023155;28;20468;-71
2023/03/10 10:42:24;;;;;;;12.00;2.63;;;19.00;99.90;;;;;;5022151;28;20803;-71
2023/03/10 10:45:36;;;;;;;14.07;2.50;;;18.70;99.90;;;;;;5019729;28;20461;-71
2023/03/10 10:48:04;;;;;;;17.83;2.80;;;19.40;99.90;;;;;;5006234;28;20445;-71
2023/03/10 10:50:35;;;;;;;16.40;2.90;;;19.40;99.90;;;;;;5023328;28;20419;-71
2023/03/10 10:53:23;;;;;;;19.38;3.10;;;19.70;99.90;;;;;;5001817;28;20429;-71
2023/03/10 10:56:14;;;;;;;22.05;3.00;;;19.00;99.90;;;;;;5008478;28;20414;-71
2023/03/10 10:58:44;;;;;;;19.13;3.70;;;18.70;99.90;;;;;;4986200;28;21104;-70
2023/03/10 11:01:15;;;;;;;23.05;3.28;;;19.00;99.90;;;;;;5000216;28;20445;-71
2023/03/10 11:04:02;;;;;;;21.42;3.33;;;18.80;99.90;;;;;;5020275;28;20426;-71
2023/03/10 11:06:36;;;;;;;19.25;3.40;;;18.90;99.90;;;;;;5005554;28;21149;-71
2023/03/10 11:09:04;;;;;;;22.10;3.65;;;19.00;99.90;;;;;;4997683;28;20413;-71
2023/03/10 11:11:46;;;;;;;;;;;18.60;99.90;;;;;;5010926;28;20680;-71
2023/03/10 11:14:28;;;;;;;;;;;18.50;99.90;;;;;;5022766;28;20007;-71
2023/03/10 11:17:13;;;;;;;;;;;18.60;99.90;;;;;;5024918;28;19939;-71
2023/03/10 11:19:57;;;;;;;;;;;18.70;99.90;;;;;;5021955;28;19917;-71
2023/03/10 11:22:53;;;;;;;22.10;3.05;;;18.80;99.90;;;;;;5023547;28;20248;-71
2023/03/10 11:25:46;;;;;;;19.95;3.33;;;18.60;99.90;;;;;;5024191;28;20406;-71
2023/03/10 11:28:12;;;;;;;17.03;3.20;;;18.90;99.90;;;;;;4997528;28;20414;-71
2023/03/10 11:31:04;;;;;;;14.43;3.00;;;19.30;99.90;;;;;;5002155;28;20878;-71
2023/03/10 11:33:34;;;;;;;19.27;2.88;;;19.30;99.90;;;;;;5006121;28;20442;-71
2023/03/10 11:36:33;;;;;;;21.67;2.83;;;19.30;99.90;;;;;;5025782;28;20423;-71
2023/03/10 11:39:24;;;;;;;15.55;2.90;;;19.30;99.90;;;;;;4996262;28;20477;-71
2023/03/10 11:42:09;;;;;;;23.60;3.33;;;19.00;99.90;;;;;;5018761;28;20415;-71
2023/03/10 11:44:50;;;;;;;21.33;3.13;;;19.20;99.90;;;;;;5002153;28;20522;-71
2023/03/10 11:48:02;;;;;;;18.90;3.08;;;19.10;99.90;;;;;;5020802;28;20966;-71
2023/03/10 11:51:00;;;;;;;14.30;2.60;;;19.10;99.90;;;;;;4986901;28;20443;-71
2023/03/10 11:53:54;;;;;;;19.52;2.90;;;19.00;99.90;;;;;;4999376;28;22523;-70
2023/03/10 11:56:24;;;;;;;17.60;3.20;;;19.00;99.90;;;;;;5020167;28;20484;-71
2023/03/10 11:59:04;;;;;;;14.30;2.72;;;19.40;99.90;;;;;;5019380;28;20430;-71
2023/03/10 12:02:01;;;;;;;12.15;2.47;;;19.00;99.90;;;;;;5018536;28;20415;-71
2023/03/10 12:04:56;;;;;;;12.93;2.63;;;18.70;99.90;;;;;;5020241;28;20419;-71
2023/03/10 12:07:37;;;;;;;15.60;2.78;;;18.90;99.90;;;;;;5020961;28;20935;-71
2023/03/10 12:10:17;;;;;;;16.42;2.80;;;18.60;99.90;;;;;;5018790;28;20419;-71
2023/03/10 12:12:47;;;;;;;13.63;2.65;;;18.40;99.90;;;;;;5020021;28;20830;-71
2023/03/10 12:15:35;;;;;;;18.63;3.13;;;18.40;99.90;;;;;;5022689;28;20469;-71
2023/03/10 12:18:07;;;;;;;12.18;2.45;;;18.50;99.90;;;;;;5015888;28;20468;-71
2023/03/10 12:20:35;;;;;;;18.45;2.58;;;18.10;99.90;;;;;;5017549;28;20423;-71
2023/03/10 12:23:10;;;;;;;13.38;2.75;;;17.80;99.90;;;;;;5019923;28;20426;-71
2023/03/10 12:25:39;;;;;;;14.75;2.78;;;17.90;99.90;;;;;;5016903;28;20422;-71
2023/03/10 12:28:26;;;;;;;12.23;2.45;;;17.80;99.90;;;;;;5017946;28;20430;-71
2023/03/10 12:31:31;;;;;;;14.50;2.20;;;17.60;99.90;;;;;;4987205;28;20423;-71
2023/03/10 12:34:31;;;;;;;11.55;2.58;;;17.40;99.90;;;;;;5016523;28;20494;-71
2023/03/10 12:37:11;;;;;;;12.20;2.20;;;17.40;99.90;;;;;;4999829;28;20565;-71
2023/03/10 12:39:43;;;;;;;13.05;2.78;;;17.40;99.90;;;;;;4995718;28;20427;-71
2023/03/10 12:42:34;;;;;;;9.90;2.40;;;17.20;99.90;;;;;;5018294;28;20461;-71
2023/03/10 12:45:28;;;;;;;12.98;2.88;;;17.10;99.90;;;;;;5002351;28;20429;-71
2023/03/10 12:48:02;;;;;;;14.93;2.60;;;17.20;99.90;;;;;;5016927;28;21055;-71
2023/03/10 12:50:47;;;;;;;11.52;2.50;;;17.60;99.90;;;;;;5015512;28;20430;-71
2023/03/10 12:53:46;;;;;;;13.90;2.70;;;17.40;99.90;;;;;;5014355;28;20787;-72
2023/03/10 12:56:12;;;;;;;14.23;2.60;;;17.30;99.90;;;;;;5018713;28;20411;-71
2023/03/10 12:59:01;;;;;;;9.35;2.47;;;17.30;99.90;;;;;;5018076;28;21014;-71
2023/03/10 13:01:39;;;;;;;11.23;2.30;;;17.60;99.90;;;;;;5018504;28;20467;-71
2023/03/10 13:04:10;;;;;;;14.82;2.42;;;18.00;99.90;;;;;;5015025;28;20489;-71
2023/03/10 13:06:40;;;;;;;11.13;2.45;;;18.40;99.90;;;;;;5017908;28;20414;-71
2023/03/10 13:09:13;;;;;;;14.52;2.45;;;18.30;99.90;;;;;;5016344;28;21377;-71
2023/03/10 13:11:47;;;;;;;15.00;2.50;;;18.00;99.90;;;;;;4983006;28;20825;-71
2023/03/10 13:14:22;;;;;;;13.38;2.78;;;18.00;99.90;;;;;;5017929;28;20472;-71
2023/03/10 13:17:02;;;;;;;14.02;2.50;;;17.50;99.90;;;;;;4993923;28;20434;-71